EWG54Y OEDF-OERK
Flight info
| Callsign | EWG54Y |
|---|---|
| Flight time | N/A |
| Altitude | 28000 |
| Route | EMUSA Q212 REXOV |
| Aircraft | A21N/M-SDE2E3FGHIRWXY/LB1 |
Departure
| Time | 2026-04-26 05:47 |
|---|---|
| Airport | King Fahd International Airport (OEDF) |
Arrival
| Time | N/A |
|---|---|
| Airport | King Khalid International Airport (OERK) |
| Time | Latitude | Longitude | Altitude | Speed | Heading |
|---|---|---|---|---|---|
| 2026-04-26 05:07 | 26.47099 | 49.79375 | 68 ft | 0 kts | 60° |
| 2026-04-26 05:26 | 26.47096 | 49.79370 | 68 ft | 4 kts | 58° |
| 2026-04-26 05:26 | 26.47080 | 49.79347 | 64 ft | 4 kts | 38° |
| 2026-04-26 05:26 | 26.47059 | 49.79332 | 71 ft | 2 kts | 32° |
| 2026-04-26 05:27 | 26.47055 | 49.79329 | 66 ft | 0 kts | 32° |
| 2026-04-26 05:36 | 26.47059 | 49.79332 | 71 ft | 0 kts | 32° |
| 2026-04-26 05:36 | 26.47075 | 49.79332 | 66 ft | 4 kts | 353° |
| 2026-04-26 05:36 | 26.47122 | 49.79311 | 80 ft | 13 kts | 333° |
| 2026-04-26 05:37 | 26.47211 | 49.79260 | 83 ft | 16 kts | 335° |
| 2026-04-26 05:37 | 26.47314 | 49.79206 | 84 ft | 17 kts | 334° |
| 2026-04-26 05:37 | 26.47425 | 49.79144 | 81 ft | 11 kts | 334° |
| 2026-04-26 05:37 | 26.47503 | 49.79128 | 83 ft | 13 kts | 25° |
| 2026-04-26 05:38 | 26.47545 | 49.79218 | 81 ft | 14 kts | 75° |
| 2026-04-26 05:38 | 26.47574 | 49.79333 | 79 ft | 16 kts | 74° |
| 2026-04-26 05:38 | 26.47607 | 49.79462 | 83 ft | 18 kts | 74° |
| 2026-04-26 05:38 | 26.47642 | 49.79606 | 81 ft | 20 kts | 74° |
| 2026-04-26 05:39 | 26.47682 | 49.79762 | 85 ft | 22 kts | 74° |
| 2026-04-26 05:39 | 26.47724 | 49.79931 | 83 ft | 23 kts | 74° |
| 2026-04-26 05:39 | 26.47770 | 49.80111 | 81 ft | 25 kts | 74° |
| 2026-04-26 05:39 | 26.47818 | 49.80302 | 82 ft | 26 kts | 74° |
| 2026-04-26 05:40 | 26.47868 | 49.80501 | 81 ft | 28 kts | 74° |
| 2026-04-26 05:40 | 26.47922 | 49.80714 | 84 ft | 29 kts | 74° |
| 2026-04-26 05:40 | 26.47980 | 49.80937 | 82 ft | 31 kts | 73° |
| 2026-04-26 05:40 | 26.48007 | 49.81073 | 85 ft | 15 kts | 86° |
| 2026-04-26 05:41 | 26.47988 | 49.81044 | 85 ft | 17 kts | 280° |
| 2026-04-26 05:41 | 26.47967 | 49.80911 | 82 ft | 19 kts | 242° |
| 2026-04-26 05:41 | 26.47850 | 49.80893 | 81 ft | 20 kts | 159° |
| 2026-04-26 05:41 | 26.47709 | 49.80936 | 83 ft | 22 kts | 166° |
| 2026-04-26 05:42 | 26.47557 | 49.80982 | 84 ft | 23 kts | 164° |
| 2026-04-26 05:42 | 26.47395 | 49.81033 | 85 ft | 25 kts | 164° |
| 2026-04-26 05:42 | 26.47222 | 49.81086 | 84 ft | 26 kts | 165° |
| 2026-04-26 05:42 | 26.47039 | 49.81141 | 85 ft | 28 kts | 165° |
| 2026-04-26 05:43 | 26.46851 | 49.81201 | 86 ft | 23 kts | 165° |
| 2026-04-26 05:43 | 26.46689 | 49.81251 | 86 ft | 25 kts | 165° |
| 2026-04-26 05:43 | 26.46515 | 49.81304 | 84 ft | 27 kts | 164° |
| 2026-04-26 05:43 | 26.46331 | 49.81361 | 87 ft | 28 kts | 164° |
| 2026-04-26 05:44 | 26.46137 | 49.81421 | 87 ft | 30 kts | 165° |
| 2026-04-26 05:44 | 26.45936 | 49.81483 | 85 ft | 29 kts | 165° |
| 2026-04-26 05:44 | 26.45743 | 49.81542 | 88 ft | 25 kts | 164° |
| 2026-04-26 05:44 | 26.45577 | 49.81593 | 87 ft | 26 kts | 165° |
| 2026-04-26 05:45 | 26.45435 | 49.81592 | 85 ft | 21 kts | 239° |
| 2026-04-26 05:45 | 26.45446 | 49.81442 | 85 ft | 17 kts | 320° |
| 2026-04-26 05:45 | 26.45545 | 49.81394 | 87 ft | 0 kts | 345° |
| 2026-04-26 05:46 | 26.45550 | 49.81393 | 86 ft | 6 kts | 345° |
| 2026-04-26 05:46 | 26.45837 | 49.81304 | 86 ft | 91 kts | 345° |
| 2026-04-26 05:46 | 26.46743 | 49.81025 | 86 ft | 177 kts | 344° |
| 2026-04-26 05:46 | 26.48195 | 49.80587 | 328 ft | 248 kts | 346° |
| 2026-04-26 05:47 | 26.50041 | 49.80109 | 1057 ft | 297 kts | 347° |
| 2026-04-26 05:47 | 26.52219 | 49.79436 | 1505 ft | 352 kts | 345° |
| 2026-04-26 05:47 | 26.54652 | 49.78628 | 2951 ft | 366 kts | 343° |
| 2026-04-26 05:47 | 26.57059 | 49.77780 | 5066 ft | 367 kts | 342° |
| 2026-04-26 05:48 | 26.59554 | 49.76934 | 6470 ft | 383 kts | 341° |
| 2026-04-26 05:48 | 26.62006 | 49.75638 | 7706 ft | 395 kts | 324° |
| 2026-04-26 05:48 | 26.63840 | 49.73408 | 9198 ft | 388 kts | 296° |
| 2026-04-26 05:48 | 26.64555 | 49.70502 | 11078 ft | 395 kts | 272° |
| 2026-04-26 05:49 | 26.64207 | 49.67471 | 12248 ft | 394 kts | 253° |
| 2026-04-26 05:49 | 26.62756 | 49.61763 | 13824 ft | 370 kts | 246° |
| 2026-04-26 05:49 | 26.61614 | 49.59251 | 14573 ft | 355 kts | 241° |
| 2026-04-26 05:50 | 26.60445 | 49.56929 | 15511 ft | 331 kts | 241° |
| 2026-04-26 05:50 | 26.59332 | 49.54720 | 16533 ft | 326 kts | 242° |
| 2026-04-26 05:50 | 26.58222 | 49.52490 | 17595 ft | 331 kts | 242° |
| 2026-04-26 05:50 | 26.57105 | 49.50229 | 18618 ft | 334 kts | 242° |
| 2026-04-26 05:51 | 26.55978 | 49.47944 | 19547 ft | 338 kts | 242° |
| 2026-04-26 05:51 | 26.54836 | 49.45637 | 20479 ft | 342 kts | 242° |
| 2026-04-26 05:51 | 26.53684 | 49.43304 | 21408 ft | 343 kts | 242° |
| 2026-04-26 05:51 | 26.52537 | 49.40980 | 22336 ft | 341 kts | 242° |
| 2026-04-26 05:52 | 26.51396 | 49.38666 | 23247 ft | 339 kts | 242° |
| 2026-04-26 05:52 | 26.50261 | 49.36364 | 24031 ft | 337 kts | 242° |
| 2026-04-26 05:52 | 26.49135 | 49.34084 | 24745 ft | 334 kts | 243° |
| 2026-04-26 05:52 | 26.48018 | 49.31824 | 25434 ft | 331 kts | 243° |
| 2026-04-26 05:53 | 26.46911 | 49.29583 | 26099 ft | 329 kts | 243° |
| 2026-04-26 05:53 | 26.45807 | 49.27355 | 26756 ft | 327 kts | 243° |
| 2026-04-26 05:53 | 26.44714 | 49.25145 | 27384 ft | 325 kts | 243° |
| 2026-04-26 05:53 | 26.43629 | 49.22942 | 27792 ft | 322 kts | 244° |
| 2026-04-26 05:54 | 26.42549 | 49.20749 | 27956 ft | 324 kts | 244° |
| 2026-04-26 05:54 | 26.41453 | 49.18528 | 27983 ft | 329 kts | 244° |
| 2026-04-26 05:54 | 26.40336 | 49.16270 | 27995 ft | 335 kts | 243° |
| 2026-04-26 05:54 | 26.39197 | 49.13971 | 27992 ft | 342 kts | 243° |
| 2026-04-26 05:55 | 26.38031 | 49.11630 | 27992 ft | 349 kts | 243° |
| 2026-04-26 05:55 | 26.36841 | 49.09242 | 27990 ft | 356 kts | 243° |
| 2026-04-26 05:55 | 26.35627 | 49.06804 | 27993 ft | 363 kts | 243° |
| 2026-04-26 05:55 | 26.34389 | 49.04319 | 27994 ft | 370 kts | 243° |
| 2026-04-26 05:56 | 26.33125 | 49.01781 | 27990 ft | 378 kts | 243° |
| 2026-04-26 05:56 | 26.31839 | 48.99195 | 27991 ft | 386 kts | 243° |
| 2026-04-26 05:56 | 26.30539 | 48.96586 | 27990 ft | 394 kts | 243° |
| 2026-04-26 05:56 | 26.29200 | 48.93890 | 27989 ft | 402 kts | 243° |
| 2026-04-26 05:57 | 26.27827 | 48.91134 | 27995 ft | 411 kts | 243° |
| 2026-04-26 05:57 | 26.26428 | 48.88317 | 27994 ft | 420 kts | 243° |
| 2026-04-26 05:57 | 26.24996 | 48.85444 | 27996 ft | 428 kts | 243° |
| 2026-04-26 05:57 | 26.23531 | 48.82511 | 27997 ft | 441 kts | 243° |
| 2026-04-26 05:58 | 26.21998 | 48.79467 | 28006 ft | 456 kts | 243° |
| 2026-04-26 05:58 | 26.18856 | 48.73311 | 30187 ft | 443 kts | 243° |
| 2026-04-26 05:58 | 26.17413 | 48.70421 | 33033 ft | 409 kts | 245° |
| 2026-04-26 05:59 | 26.16110 | 48.67844 | 36335 ft | 358 kts | 246° |
| 2026-04-26 05:59 | 26.15133 | 48.65395 | 38437 ft | 343 kts | 258° |
| 2026-04-26 05:59 | 26.14874 | 48.62720 | 38796 ft | 361 kts | 277° |
| 2026-04-26 05:59 | 26.15615 | 48.59961 | 39020 ft | 390 kts | 297° |
| 2026-04-26 06:00 | 26.17058 | 48.57296 | 39148 ft | 411 kts | 289° |
| 2026-04-26 06:00 | 26.17643 | 48.54229 | 40088 ft | 400 kts | 265° |